Astor, FL (32102)

8:45 PM EDT on August 21, 2014 (GMT -0400)
RAWS CENTRAL FL US | Change Station
CLOSE
Current Station
Personal Weather Station
Location: Astor, FL
Elevation: 74 ft
Nearby Weather Stations
Active Advisory: Areal Flood Advisory

Elev 74 ft 29.11 °N, 81.63 °W | Updated 41 minutes ago

Clear
Clear
79 °F
Feels Like 81 °F
N
1
Wind Variable Wind from ESE
Gusts 12.0 mph

Today
High -- | Low -- °F
--% Chance of Precip.
Yesterday
High -- | Low -- °F
Precip. -- in
6:58 AM 8:00 PM
Waning Crescent, 11% visible
Pressure 30.12 in
Visibility 10.0 miles
Clouds Clear
Heat Index 81 °F
Dew Point 68 °F
Humidity 68%
Rainfall 0.00 in
Snow Depth Not available.
UV 0 out of 12
Pollen 7.60 out of 12
Air Quality Not available.
Flu Activity Not available.
METAR KDED 220035Z AUTO 16008KT 10SM CLR 24/21 A3012 RMK AO1

More Conditions Fewer Conditions

Pressure 30.12 in
Visibility 10.0 miles
Clouds Clear
Heat Index 81 °F
Dew Point 68 °F
Humidity 68%
Rainfall 0.00 in
Snow Depth Not available.
UV 0 out of 12
Pollen 7.60 out of 12
Air Quality Not available.
Flu Activity Not available.
METAR KDED 220035Z AUTO 16008KT 10SM CLR 24/21 A3012 RMK AO1

More Conditions Fewer Conditions

Nowcast | as of 8:12 PM EDT on August 21, 2014

The remaining storms from the early evening sea breeze collision along the I-4 corridor will continue to wind down over the next hour with light to moderate rain and embedded storms along a line from Lake George to Kissimmee. Outflow boundaries from this activity may spark a few additional storms across Lake County...as well as in southeastern Volusia...eastern Orange...and northern Brevard counties. Additional details...including graphics are available online at: http://www.Srh.NOAA.Gov/mlb/blog.Php

×

10-Day Weather Forecast

Almanac

Astronomy

Aug. 21, 2014 Rise Set
Actual Time 6:58 AM EDT 8:00 PM EDT
Civil Twilight 6:33 AM EDT 8:24 PM EDT
Nautical Twilight 6:04 AM EDT 8:53 PM EDT
Astronomical Twilight 5:34 AM EDT 9:23 PM EDT
Moon 3:34 AM EDT (8/21) 5:21 PM EDT (8/21)
Length of Visible Light 13h 51m
Length of Day
13h 02m
Tomorrow will be 1m 36s shorter.
Waning Crescent, 11% of the Moon is Illuminated
Today
Waning Crescent
Aug 25
New
Sep 2
First Quarter
Sep 8
Full
Sep 15
Last Quarter

Today's Extremes

State Highs State Lows

Community

WunderPhotos

Upload Photos

1,746,088 photos uploaded!

Nearby

Snow Depth

Station Depth Elevation
No new snow has been reported.

Earthquake Activity

City Distance Mag. Time & Date
No recent earthquake activity has been reported nearby.
Minimum magnitude displayed is 2.5.

Coastal Water Temperatures

Place Temperature
No Stations Reporting

Nearby Weather Stations